Time;durP1;ratioP1;P1;durP2;ratioP2;P2;SDS_P1;SDS_P2;PMS_P1;PMS_P2;Temp;Humidity;BMP_temperature;BMP_pressure;BME280_temperature;BME280_humidity;BME280_pressure;Samples;Min_cycle;Max_cycle;Signal;HPM_P1;HPM_P2
2022/12/26 00:00:59;;;;;;;6.07;2.90;;;11.30;99.90;;;;;;4998459;28;20194;-50
2022/12/26 00:03:24;;;;;;;5.20;2.70;;;11.20;99.90;;;;;;5015788;28;20169;-49
2022/12/26 00:05:50;;;;;;;8.30;3.40;;;11.20;99.90;;;;;;5015636;28;20181;-50
2022/12/26 00:08:17;;;;;;;6.17;2.30;;;11.20;99.90;;;;;;5015320;28;20180;-49
2022/12/26 00:10:42;;;;;;;4.07;2.83;;;11.20;99.90;;;;;;5015477;28;20198;-50
2022/12/26 00:13:08;;;;;;;6.07;2.53;;;11.20;99.90;;;;;;5015130;28;20188;-50
2022/12/26 00:15:34;;;;;;;3.53;2.47;;;11.20;99.90;;;;;;5015140;28;20231;-50
2022/12/26 00:17:59;;;;;;;5.53;2.77;;;11.20;99.90;;;;;;5015427;28;20205;-51
2022/12/26 00:20:25;;;;;;;7.60;2.90;;;11.20;99.90;;;;;;5015527;28;20193;-50
2022/12/26 00:22:51;;;;;;;5.53;2.90;;;11.30;99.90;;;;;;5015342;28;20256;-48
2022/12/26 00:25:16;;;;;;;5.30;2.80;;;11.30;99.90;;;;;;5015162;28;20185;-47
2022/12/26 00:27:42;;;;;;;6.07;3.27;;;11.30;99.90;;;;;;5015071;28;20185;-48
2022/12/26 00:30:08;;;;;;;7.47;2.80;;;11.40;99.90;;;;;;5015133;28;20713;-48
2022/12/26 00:32:33;;;;;;;3.63;2.60;;;11.30;99.90;;;;;;5014724;28;20291;-48
2022/12/26 00:34:59;;;;;;;5.90;3.00;;;11.40;99.90;;;;;;5015129;28;20260;-49
2022/12/26 00:37:25;;;;;;;3.80;2.40;;;11.40;99.90;;;;;;5015574;28;20209;-49
2022/12/26 00:39:50;;;;;;;5.23;2.20;;;11.50;99.90;;;;;;5013607;28;20178;-48
2022/12/26 00:42:16;;;;;;;7.80;2.70;;;11.50;99.90;;;;;;5015187;28;20193;-48
2022/12/26 00:44:41;;;;;;;8.53;2.63;;;11.50;99.90;;;;;;5014781;28;20174;-48
2022/12/26 00:47:07;;;;;;;8.33;3.10;;;11.50;99.90;;;;;;5015181;28;20660;-48
2022/12/26 00:49:32;;;;;;;8.07;3.10;;;11.50;99.90;;;;;;5015136;28;20719;-49
2022/12/26 00:51:58;;;;;;;6.33;3.10;;;11.40;99.90;;;;;;5014469;28;20197;-48
2022/12/26 00:54:23;;;;;;;6.83;2.60;;;11.50;99.90;;;;;;5014414;28;20188;-49
2022/12/26 00:56:49;;;;;;;3.97;2.43;;;11.50;99.90;;;;;;5014553;28;20276;-48
2022/12/26 00:59:15;;;;;;;4.70;2.50;;;11.50;99.90;;;;;;5014522;28;20178;-50
2022/12/26 01:01:40;;;;;;;5.87;3.00;;;11.50;99.90;;;;;;5014255;28;20207;-50
2022/12/26 01:04:06;;;;;;;6.00;2.77;;;11.40;99.90;;;;;;5014362;28;20537;-49
2022/12/26 01:06:31;;;;;;;4.07;2.47;;;11.50;99.90;;;;;;5014245;28;20209;-50
2022/12/26 01:08:58;;;;;;;6.23;2.67;;;11.60;99.90;;;;;;4996671;28;20186;-49
2022/12/26 01:11:39;;;;;;;5.40;2.50;;;11.50;99.90;;;;;;5015226;28;20197;-50
2022/12/26 01:14:07;;;;;;;4.53;2.20;;;11.50;99.90;;;;;;5014242;28;20169;-49
2022/12/26 01:16:33;;;;;;;3.50;2.80;;;11.50;99.90;;;;;;5013975;28;20193;-49
2022/12/26 01:18:59;;;;;;;7.33;2.80;;;11.50;99.90;;;;;;5014151;28;20234;-50
2022/12/26 01:21:24;;;;;;;5.37;2.30;;;11.50;99.90;;;;;;5014007;28;20680;-51
2022/12/26 01:23:50;;;;;;;7.17;2.63;;;11.50;99.90;;;;;;5014518;28;20200;-49
2022/12/26 01:26:15;;;;;;;4.30;2.23;;;11.50;99.90;;;;;;5014014;28;20259;-48
2022/12/26 01:28:41;;;;;;;4.93;2.27;;;11.50;99.90;;;;;;5014265;28;20184;-49
2022/12/26 01:31:06;;;;;;;5.73;2.43;;;11.60;99.90;;;;;;5014512;28;20208;-49
2022/12/26 01:33:32;;;;;;;4.87;2.53;;;11.50;99.90;;;;;;5014420;28;20252;-48
2022/12/26 01:35:58;;;;;;;4.57;2.53;;;11.50;99.90;;;;;;5013873;28;20181;-49
2022/12/26 01:38:24;;;;;;;6.63;2.57;;;11.60;99.90;;;;;;4996325;28;20696;-48
2022/12/26 01:41:15;;;;;;;4.27;2.70;;;11.60;99.90;;;;;;5014030;28;20208;-48
2022/12/26 01:43:47;;;;;;;6.83;2.40;;;11.60;99.90;;;;;;5013534;28;20177;-48
2022/12/26 01:46:14;;;;;;;5.00;2.50;;;11.50;99.90;;;;;;5013870;28;20203;-48
2022/12/26 01:48:40;;;;;;;4.17;2.20;;;11.50;99.90;;;;;;5013628;28;20713;-47
2022/12/26 01:51:06;;;;;;;7.13;2.50;;;11.50;99.90;;;;;;5013628;28;20207;-48
2022/12/26 01:53:44;;;;;;;4.50;2.43;;;11.50;99.90;;;;;;4996111;28;20224;-48
2022/12/26 01:56:16;;;;;;;8.20;3.13;;;11.40;99.90;;;;;;5013577;28;20173;-47
2022/12/26 01:58:49;;;;;;;5.63;2.67;;;11.40;99.90;;;;;;5014183;28;20283;-48
2022/12/26 02:01:15;;;;;;;7.63;3.00;;;11.40;99.90;;;;;;5013925;28;20217;-48
2022/12/26 02:06:29;;;;;;;6.53;2.70;;;11.30;99.90;;;;;;5013613;28;20622;-47
2022/12/26 02:08:55;;;;;;;6.53;3.00;;;11.40;99.90;;;;;;5013685;28;20181;-46
2022/12/26 02:11:39;;;;;;;5.10;2.90;;;11.30;99.90;;;;;;5013784;28;20623;-45
2022/12/26 02:14:06;;;;;;;7.93;3.10;;;11.10;99.90;;;;;;5013667;28;20493;-46
2022/12/26 02:16:37;;;;;;;5.43;2.40;;;11.10;99.90;;;;;;5046194;23;20313;-43
2022/12/26 02:19:05;;;;;;;4.97;2.50;;;10.90;99.90;;;;;;5073017;28;20203;-44
2022/12/26 02:21:31;;;;;;;4.57;2.20;;;10.90;99.90;;;;;;5072867;28;20265;-42
2022/12/26 02:24:24;;;;;;;4.17;2.50;;;10.90;99.90;;;;;;5072941;28;20179;-43
2022/12/26 02:27:20;;;;;;;4.23;2.53;;;10.80;99.90;;;;;;5073214;28;20190;-43
2022/12/26 02:30:23;;;;;;;5.23;2.87;;;10.80;99.90;;;;;;5073397;28;20288;-44
2022/12/26 02:33:13;;;;;;;3.07;2.20;;;10.80;99.90;;;;;;5072860;28;20205;-45
2022/12/26 02:36:03;;;;;;;7.00;2.97;;;10.70;99.90;;;;;;5072784;28;20170;-42
2022/12/26 02:38:44;;;;;;;5.37;2.47;;;10.70;99.90;;;;;;5072889;28;20235;-44
2022/12/26 02:41:15;;;;;;;4.07;2.37;;;10.70;99.90;;;;;;5073120;28;20198;-44
2022/12/26 02:43:59;;;;;;;3.47;2.10;;;10.70;99.90;;;;;;5072719;28;20704;-42
2022/12/26 03:13:09;;;;;;;3.47;2.50;;;10.50;99.90;;;;;;5076338;28;20174;-44
2022/12/26 03:18:38;;;;;;;4.20;2.57;;;10.50;99.90;;;;;;5076202;28;20236;-46
2022/12/26 03:21:06;;;;;;;3.30;2.50;;;10.50;99.90;;;;;;5076164;28;20199;-45
2022/12/26 03:23:33;;;;;;;3.77;2.57;;;10.50;99.90;;;;;;5076341;28;20167;-44
2022/12/26 03:28:47;;;;;;;4.47;2.60;;;10.50;99.90;;;;;;5084149;28;20170;-43
2022/12/26 03:31:14;;;;;;;3.27;2.63;;;10.50;99.90;;;;;;5082124;28;20263;-45
2022/12/26 03:37:18;;;;;;;3.03;2.40;;;10.50;99.90;;;;;;5076084;28;20761;-45
2022/12/26 04:20:53;;;;;;;4.57;3.33;;;10.40;99.90;;;;;;5074854;28;20268;-44
2022/12/26 04:46:03;;;;;;;5.50;3.93;;;10.30;99.90;;;;;;5074412;28;20174;-45
2022/12/26 04:51:13;;;;;;;4.97;3.70;;;10.20;99.90;;;;;;5074058;28;20818;-43
2022/12/26 04:53:38;;;;;;;9.13;3.87;;;10.20;99.90;;;;;;5073504;28;20262;-44
2022/12/26 04:56:04;;;;;;;6.23;4.00;;;10.20;99.90;;;;;;5072632;28;20657;-44
2022/12/26 04:58:30;;;;;;;7.07;4.27;;;10.20;99.90;;;;;;5074260;28;20207;-45
2022/12/26 05:09:32;;;;;;;4.77;3.83;;;10.20;99.90;;;;;;5072792;28;20199;-42
2022/12/26 05:11:54;;;;;;;6.07;3.97;;;10.10;99.90;;;;;;5073979;28;20221;-43
2022/12/26 05:14:19;;;;;;;6.40;3.83;;;10.20;99.90;;;;;;5073562;28;20647;-45
2022/12/26 05:30:27;;;;;;;8.27;3.40;;;10.20;99.90;;;;;;5074072;28;20232;-43
2022/12/26 05:35:38;;;;;;;5.23;3.17;;;10.20;99.90;;;;;;5073668;28;20170;-45
2022/12/26 05:38:03;;;;;;;5.63;2.70;;;10.20;99.90;;;;;;5073275;28;20206;-44
2022/12/26 05:40:29;;;;;;;4.93;2.50;;;10.20;99.90;;;;;;5073698;28;20188;-44
2022/12/26 05:42:55;;;;;;;3.97;2.77;;;10.20;99.90;;;;;;5073336;28;20176;-43
2022/12/26 05:45:20;;;;;;;4.40;2.40;;;10.20;99.90;;;;;;5072046;28;20212;-44
2022/12/26 05:47:46;;;;;;;2.70;2.13;;;10.20;99.90;;;;;;5073344;28;20214;-44
2022/12/26 05:50:12;;;;;;;4.17;1.83;;;10.20;99.90;;;;;;5073174;28;20674;-44
2022/12/26 05:52:37;;;;;;;2.47;1.40;;;10.20;99.90;;;;;;5073125;28;20206;-44
2022/12/26 05:55:03;;;;;;;1.97;1.60;;;10.20;99.90;;;;;;5073206;28;20191;-43
2022/12/26 05:57:29;;;;;;;2.53;1.60;;;10.20;99.90;;;;;;5071861;28;20215;-45
2022/12/26 05:59:54;;;;;;;2.67;1.50;;;10.20;99.90;;;;;;5072010;28;20494;-43
2022/12/26 06:02:20;;;;;;;3.37;1.77;;;10.20;99.90;;;;;;5073400;28;20663;-46
2022/12/26 06:04:46;;;;;;;1.87;1.30;;;10.20;99.90;;;;;;5073130;28;20539;-44
2022/12/26 06:07:11;;;;;;;2.27;1.37;;;10.20;99.90;;;;;;5073188;28;20183;-45
2022/12/26 06:09:37;;;;;;;2.03;1.40;;;10.20;99.90;;;;;;5073071;28;20258;-45
2022/12/26 06:12:02;;;;;;;1.73;1.43;;;10.20;99.90;;;;;;5073417;28;20207;-45
2022/12/26 06:14:28;;;;;;;2.23;1.40;;;10.20;99.90;;;;;;5071882;28;20219;-44
2022/12/26 06:16:54;;;;;;;3.77;1.30;;;10.20;99.90;;;;;;5071710;28;20576;-43
2022/12/26 06:19:19;;;;;;;1.90;1.30;;;10.20;99.90;;;;;;5072006;28;20179;-44
2022/12/26 06:21:45;;;;;;;2.33;1.30;;;10.20;99.90;;;;;;5073558;28;20213;-45
2022/12/26 06:24:12;;;;;;;1.43;1.13;;;10.20;99.90;;;;;;5073236;28;20176;-43
2022/12/26 06:26:38;;;;;;;2.20;1.70;;;10.10;99.90;;;;;;5072145;28;20225;-44
2022/12/26 06:29:04;;;;;;;2.07;1.70;;;10.10;99.90;;;;;;5072054;28;20206;-46
2022/12/26 06:31:29;;;;;;;3.23;2.00;;;10.10;99.90;;;;;;5055225;28;20610;-43
2022/12/26 06:34:00;;;;;;;3.57;2.43;;;10.10;99.90;;;;;;5073294;28;20611;-45
2022/12/26 06:36:28;;;;;;;3.40;1.77;;;10.10;99.90;;;;;;5072136;28;20207;-43
2022/12/26 06:38:54;;;;;;;4.77;1.70;;;10.10;99.90;;;;;;5075589;28;20264;-44
2022/12/26 06:41:22;;;;;;;2.13;1.53;;;10.10;99.90;;;;;;5077072;28;20210;-44
2022/12/26 06:43:48;;;;;;;2.77;2.10;;;10.10;99.90;;;;;;5077363;28;20174;-44
2022/12/26 06:46:17;;;;;;;4.00;1.63;;;10.20;99.90;;;;;;5076591;28;20180;-46
2022/12/26 06:48:43;;;;;;;4.00;1.90;;;10.20;99.90;;;;;;5077823;28;20195;-45
2022/12/26 06:51:11;;;;;;;2.30;1.70;;;10.20;99.90;;;;;;5078017;28;20196;-43
2022/12/26 06:53:37;;;;;;;4.90;1.50;;;10.20;99.90;;;;;;5076339;28;20253;-42
2022/12/26 06:56:06;;;;;;;4.63;1.37;;;10.20;99.90;;;;;;5076748;28;20607;-44
2022/12/26 06:58:31;;;;;;;1.40;1.00;;;10.20;99.90;;;;;;5086236;28;20207;-42
2022/12/26 07:01:07;;;;;;;0.60;0.60;;;10.20;99.90;;;;;;5088065;28;20683;-43
2022/12/26 07:03:32;;;;;;;1.83;0.63;;;10.20;99.90;;;;;;5078803;28;20717;-45
2022/12/26 07:06:06;;;;;;;1.17;0.90;;;10.10;99.90;;;;;;5076336;28;20263;-42
2022/12/26 07:08:32;;;;;;;0.80;0.40;;;10.10;99.90;;;;;;5076478;28;20267;-45
2022/12/26 07:10:58;;;;;;;1.77;0.70;;;10.10;99.90;;;;;;5075111;28;20579;-45
2022/12/26 07:13:24;;;;;;;1.60;0.80;;;10.10;99.90;;;;;;5075299;28;20177;-43
2022/12/26 07:15:50;;;;;;;1.30;0.73;;;10.00;99.90;;;;;;5058860;28;20190;-44
2022/12/26 07:18:16;;;;;;;1.73;0.77;;;10.00;99.90;;;;;;5075757;28;20230;-43
2022/12/26 07:20:42;;;;;;;3.30;0.63;;;10.00;99.90;;;;;;5074920;28;20210;-42
2022/12/26 07:23:08;;;;;;;1.07;0.50;;;10.00;99.90;;;;;;5075364;28;20254;-44
2022/12/26 07:25:36;;;;;;;1.43;0.73;;;10.00;99.90;;;;;;5074927;28;20654;-46
2022/12/26 07:28:02;;;;;;;1.40;0.50;;;10.00;99.90;;;;;;5074812;28;20736;-44
2022/12/26 07:30:28;;;;;;;1.17;0.70;;;9.90;99.90;;;;;;5076088;28;20161;-44
2022/12/26 07:32:54;;;;;;;1.20;0.90;;;9.90;99.90;;;;;;5076563;28;20174;-43
2022/12/26 07:35:53;;;;;;;0.60;0.60;;;9.90;99.90;;;;;;5074849;28;20192;-45
2022/12/26 07:38:25;;;;;;;3.47;0.57;;;9.90;99.90;;;;;;5074981;28;20250;-42
2022/12/26 07:40:56;;;;;;;1.57;0.70;;;9.90;99.90;;;;;;5076363;28;20242;-43
2022/12/26 07:43:23;;;;;;;1.10;0.60;;;9.90;99.90;;;;;;5074316;28;20175;-43
2022/12/26 07:45:49;;;;;;;0.80;0.80;;;9.90;99.90;;;;;;5076133;28;20265;-44
2022/12/26 07:48:14;;;;;;;1.03;0.73;;;9.90;99.90;;;;;;5075407;28;20530;-44
2022/12/26 07:50:40;;;;;;;1.00;0.90;;;9.90;99.90;;;;;;5073710;28;20190;-44
2022/12/26 07:53:06;;;;;;;1.60;0.77;;;9.90;99.90;;;;;;5074349;28;20195;-43
2022/12/26 07:55:31;;;;;;;2.17;0.70;;;9.90;99.90;;;;;;5074102;28;20197;-45
2022/12/26 07:57:57;;;;;;;1.53;1.00;;;9.90;99.90;;;;;;5075232;28;20199;-44
2022/12/26 08:00:23;;;;;;;1.30;0.90;;;9.80;99.90;;;;;;5075474;28;20266;-44
2022/12/26 08:02:50;;;;;;;0.97;0.60;;;9.80;99.90;;;;;;5074178;28;20536;-44
2022/12/26 08:05:16;;;;;;;2.97;0.97;;;9.80;99.90;;;;;;5074018;28;20178;-45
2022/12/26 08:07:45;;;;;;;1.13;0.70;;;9.80;99.90;;;;;;5073852;28;20672;-43
2022/12/26 08:10:10;;;;;;;1.10;0.83;;;9.80;99.90;;;;;;5073699;28;20182;-43
2022/12/26 08:12:36;;;;;;;1.00;0.80;;;9.80;99.90;;;;;;5075117;28;20247;-42
2022/12/26 08:15:02;;;;;;;1.90;1.07;;;9.80;99.90;;;;;;5073650;28;20194;-43
2022/12/26 08:17:30;;;;;;;1.83;0.90;;;9.80;99.90;;;;;;5073527;28;20222;-43
2022/12/26 08:19:55;;;;;;;3.80;1.10;;;9.90;99.90;;;;;;5074593;28;20643;-50
2022/12/26 08:22:21;;;;;;;2.33;1.20;;;9.80;99.90;;;;;;5074984;28;20201;-51
2022/12/26 08:24:47;;;;;;;2.03;1.23;;;9.80;99.90;;;;;;5075099;28;20164;-50
2022/12/26 08:27:12;;;;;;;2.30;1.40;;;9.80;99.90;;;;;;5074458;28;20192;-51
2022/12/26 08:29:38;;;;;;;3.07;1.00;;;9.80;99.90;;;;;;5074458;28;20183;-49
2022/12/26 08:32:04;;;;;;;1.50;1.10;;;9.80;99.90;;;;;;5074472;28;20200;-49
2022/12/26 08:34:34;;;;;;;1.70;0.80;;;9.80;99.90;;;;;;5074227;28;20180;-48
2022/12/26 08:36:59;;;;;;;3.93;0.87;;;9.80;99.90;;;;;;5074162;28;20179;-50
2022/12/26 08:39:25;;;;;;;1.47;1.10;;;9.80;99.90;;;;;;5074212;28;20275;-51
2022/12/26 08:41:50;;;;;;;1.60;0.80;;;9.80;99.90;;;;;;5073993;28;20241;-51
2022/12/26 08:44:16;;;;;;;2.43;0.90;;;9.80;99.90;;;;;;5072851;28;20176;-52
2022/12/26 08:46:42;;;;;;;2.23;1.07;;;9.80;99.90;;;;;;5074135;28;20187;-49
2022/12/26 08:49:08;;;;;;;3.37;1.07;;;9.90;99.90;;;;;;5073180;28;20186;-50
2022/12/26 08:51:33;;;;;;;1.77;1.10;;;9.90;99.90;;;;;;5073944;28;20683;-51
2022/12/26 08:53:59;;;;;;;6.03;1.30;;;9.90;99.90;;;;;;5074224;28;20186;-49
2022/12/26 08:56:26;;;;;;;1.57;1.00;;;10.00;99.90;;;;;;5074220;28;20168;-51
2022/12/26 08:58:52;;;;;;;1.37;1.00;;;10.00;99.90;;;;;;5069685;28;20203;-51
2022/12/26 09:01:24;;;;;;;1.73;1.00;;;10.00;99.90;;;;;;5072864;28;20203;-50
2022/12/26 09:04:05;;;;;;;2.13;1.00;;;10.10;99.90;;;;;;5074114;28;20163;-49
2022/12/26 09:06:32;;;;;;;4.73;1.30;;;10.10;99.90;;;;;;5073842;28;20237;-51
2022/12/26 09:08:59;;;;;;;2.70;1.00;;;10.10;99.90;;;;;;5073735;28;20180;-50
2022/12/26 09:11:28;;;;;;;1.97;0.90;;;10.20;99.90;;;;;;5073755;28;20187;-50
2022/12/26 09:13:56;;;;;;;2.50;1.13;;;10.20;99.90;;;;;;5073637;28;20233;-51
2022/12/26 09:16:27;;;;;;;1.87;1.13;;;10.20;99.90;;;;;;5072274;28;20655;-50
2022/12/26 09:18:55;;;;;;;2.90;1.20;;;10.20;99.90;;;;;;5073876;28;20243;-51
2022/12/26 09:21:22;;;;;;;1.63;1.20;;;10.20;99.90;;;;;;5072172;28;20208;-50
2022/12/26 09:23:47;;;;;;;4.13;0.90;;;10.30;99.90;;;;;;5073828;28;20179;-50
2022/12/26 09:26:16;;;;;;;2.87;1.37;;;10.30;99.90;;;;;;5073694;28;20180;-50
2022/12/26 09:28:42;;;;;;;2.67;1.00;;;10.30;99.90;;;;;;5073678;28;20183;-50
2022/12/26 09:31:12;;;;;;;3.03;1.33;;;10.30;99.90;;;;;;5073811;28;20195;-50
2022/12/26 09:33:38;;;;;;;2.53;1.07;;;10.30;99.90;;;;;;5074147;28;20258;-49
2022/12/26 09:36:06;;;;;;;1.30;1.00;;;10.30;99.90;;;;;;5073440;28;20214;-49
2022/12/26 09:38:32;;;;;;;1.83;1.00;;;10.40;99.90;;;;;;5073307;28;20237;-50
2022/12/26 09:41:06;;;;;;;4.57;0.90;;;10.40;99.90;;;;;;5073444;28;20223;-50
2022/12/26 09:43:47;;;;;;;2.27;0.70;;;10.40;99.90;;;;;;5073805;28;20163;-51
2022/12/26 09:46:34;;;;;;;3.10;0.93;;;10.40;99.90;;;;;;5073364;28;20185;-48
2022/12/26 09:49:12;;;;;;;0.93;0.53;;;10.40;99.90;;;;;;5073324;28;20182;-50
2022/12/26 09:51:41;;;;;;;3.20;1.23;;;10.50;99.90;;;;;;5071913;28;20620;-49
2022/12/26 09:54:32;;;;;;;2.73;1.00;;;10.60;99.90;;;;;;5073647;28;20264;-49
2022/12/26 09:56:59;;;;;;;2.17;0.90;;;10.60;99.90;;;;;;5073725;28;20250;-51
2022/12/26 09:59:26;;;;;;;1.20;0.80;;;10.50;99.90;;;;;;5073130;28;20218;-50
2022/12/26 10:01:52;;;;;;;3.00;1.00;;;10.60;99.90;;;;;;5073056;28;20196;-48
2022/12/26 10:04:24;;;;;;;1.63;0.80;;;10.60;99.90;;;;;;5073316;28;20176;-49
2022/12/26 10:07:20;;;;;;;2.83;0.90;;;10.70;99.90;;;;;;5073075;28;20519;-49
2022/12/26 10:09:51;;;;;;;2.73;1.30;;;10.60;99.90;;;;;;5066463;28;20244;-49
2022/12/26 10:12:39;;;;;;;2.13;1.10;;;10.60;99.90;;;;;;5074604;28;20199;-50
2022/12/26 10:15:21;;;;;;;1.43;0.90;;;10.60;99.90;;;;;;5077712;28;20577;-48
2022/12/26 10:17:55;;;;;;;3.33;1.20;;;10.60;99.90;;;;;;5077014;28;20318;-50
2022/12/26 10:20:52;;;;;;;3.47;0.90;;;10.70;99.90;;;;;;5077402;28;20160;-50
2022/12/26 10:23:38;;;;;;;4.33;1.00;;;10.70;99.90;;;;;;5078239;28;20159;-51
2022/12/26 10:26:13;;;;;;;2.40;1.00;;;10.60;99.90;;;;;;5081816;28;20178;-49
2022/12/26 10:28:53;;;;;;;3.87;0.70;;;10.60;99.90;;;;;;5087086;28;20185;-49
2022/12/26 10:31:28;;;;;;;2.50;0.83;;;10.60;99.90;;;;;;5081031;28;20282;-50
2022/12/26 10:34:23;;;;;;;2.80;0.90;;;10.70;99.90;;;;;;5076847;28;20173;-49
2022/12/26 10:36:53;;;;;;;1.60;0.80;;;10.70;99.90;;;;;;5053189;28;20659;-49
2022/12/26 10:39:29;;;;;;;0.63;0.53;;;10.70;99.90;;;;;;5076944;28;20211;-48
2022/12/26 10:42:00;;;;;;;2.70;1.10;;;10.70;99.90;;;;;;5076644;28;20199;-50
2022/12/26 10:44:26;;;;;;;1.43;0.50;;;10.70;99.90;;;;;;5076745;28;20500;-49
2022/12/26 10:47:10;;;;;;;4.63;1.10;;;10.70;99.90;;;;;;5076741;28;20176;-51
2022/12/26 10:49:35;;;;;;;2.83;0.80;;;10.70;99.90;;;;;;5076731;28;20164;-50
2022/12/26 10:52:02;;;;;;;1.67;1.20;;;10.70;99.90;;;;;;5076296;28;20256;-49
2022/12/26 10:54:29;;;;;;;2.33;0.90;;;10.70;99.90;;;;;;5076625;28;20171;-49
2022/12/26 10:56:56;;;;;;;2.87;0.60;;;10.70;99.90;;;;;;5076550;28;20174;-50
2022/12/26 10:59:38;;;;;;;5.53;1.00;;;10.70;99.90;;;;;;5076186;28;20221;-50
2022/12/26 11:02:24;;;;;;;5.80;0.87;;;10.70;99.90;;;;;;5076150;28;20202;-51
2022/12/26 11:04:57;;;;;;;4.03;1.03;;;10.80;99.90;;;;;;5076123;28;20168;-50
2022/12/26 11:07:26;;;;;;;3.60;1.03;;;10.80;99.90;;;;;;5075994;28;20662;-47
2022/12/26 11:09:54;;;;;;;4.73;1.50;;;10.80;99.90;;;;;;5076121;28;20186;-49
2022/12/26 11:12:29;;;;;;;3.33;1.00;;;10.80;99.90;;;;;;5075018;28;20287;-49
2022/12/26 11:15:02;;;;;;;2.40;1.37;;;10.80;99.90;;;;;;5076204;28;20516;-50
2022/12/26 11:17:31;;;;;;;3.53;1.30;;;10.80;99.90;;;;;;5075848;28;20211;-51
2022/12/26 11:20:14;;;;;;;1.43;1.00;;;10.90;99.90;;;;;;5075874;28;20168;-50
2022/12/26 11:22:40;;;;;;;4.60;1.10;;;10.90;99.90;;;;;;5075829;28;20201;-51
2022/12/26 11:25:08;;;;;;;6.67;1.23;;;11.00;99.90;;;;;;5074942;28;20209;-50
2022/12/26 11:27:38;;;;;;;4.07;1.33;;;11.10;99.90;;;;;;5075793;28;20182;-50
2022/12/26 11:30:13;;;;;;;1.83;0.80;;;11.20;99.90;;;;;;5075874;28;20167;-51
2022/12/26 11:32:40;;;;;;;4.67;1.00;;;11.20;99.90;;;;;;5076109;28;20230;-49
2022/12/26 11:35:16;;;;;;;2.63;0.90;;;11.20;99.90;;;;;;5075676;28;20178;-50
2022/12/26 11:37:44;;;;;;;1.60;0.83;;;11.20;99.90;;;;;;5075676;28;20228;-50
2022/12/26 11:40:20;;;;;;;8.83;0.90;;;11.20;99.90;;;;;;5075500;28;20203;-50
2022/12/26 11:42:53;;;;;;;4.83;0.90;;;11.30;99.90;;;;;;5075711;28;20201;-51
2022/12/26 11:45:22;;;;;;;1.80;0.80;;;11.30;99.90;;;;;;5075495;28;20580;-51
2022/12/26 11:47:49;;;;;;;2.40;1.10;;;11.30;99.90;;;;;;5075866;28;20635;-50
2022/12/26 11:50:20;;;;;;;3.37;1.07;;;11.30;99.90;;;;;;5074063;28;20278;-51
2022/12/26 11:52:54;;;;;;;1.50;0.70;;;11.30;99.90;;;;;;5075542;28;20256;-51
2022/12/26 11:55:28;;;;;;;3.07;1.00;;;11.20;99.90;;;;;;5075809;28;20175;-51
2022/12/26 11:58:08;;;;;;;4.53;1.27;;;11.30;99.90;;;;;;5075220;28;20257;-50
2022/12/26 12:00:57;;;;;;;1.07;0.60;;;11.30;99.90;;;;;;5075438;28;20207;-51
2022/12/26 12:03:46;;;;;;;2.43;0.77;;;11.30;99.90;;;;;;5065232;28;20187;-51
2022/12/26 12:06:14;;;;;;;3.17;0.97;;;11.40;99.90;;;;;;5075455;28;20163;-50
2022/12/26 12:09:18;;;;;;;1.83;0.90;;;11.50;99.90;;;;;;5075050;28;20580;-49
2022/12/26 12:11:52;;;;;;;4.50;0.90;;;11.50;99.90;;;;;;5041165;28;20282;-50
2022/12/26 12:14:44;;;;;;;3.47;0.97;;;11.60;99.90;;;;;;5074866;28;20186;-49
2022/12/26 12:17:28;;;;;;;4.47;0.90;;;11.70;99.90;;;;;;5073761;28;20187;-51
2022/12/26 12:20:12;;;;;;;5.67;1.50;;;11.80;99.90;;;;;;5074910;28;20168;-50
2022/12/26 12:23:07;;;;;;;1.50;1.03;;;11.80;99.90;;;;;;5074797;28;20236;-50
2022/12/26 12:26:20;;;;;;;4.87;1.20;;;11.80;99.90;;;;;;5074920;28;20168;-50
2022/12/26 12:28:57;;;;;;;3.87;1.20;;;11.80;99.90;;;;;;5061323;28;20244;-49
2022/12/26 12:31:54;;;;;;;1.47;0.70;;;11.80;99.90;;;;;;5074723;28;20565;-48
2022/12/26 12:34:48;;;;;;;2.90;1.10;;;11.80;99.90;;;;;;5074941;28;20175;-50
2022/12/26 12:37:46;;;;;;;3.17;1.17;;;11.80;99.90;;;;;;5074320;28;20179;-50
2022/12/26 12:40:43;;;;;;;5.83;1.50;;;11.70;99.90;;;;;;5074648;28;20632;-50
2022/12/26 12:43:15;;;;;;;5.67;1.60;;;11.70;99.90;;;;;;5074458;28;20156;-50
2022/12/26 12:46:09;;;;;;;3.17;1.20;;;11.60;99.90;;;;;;5074428;28;20200;-50
2022/12/26 12:49:02;;;;;;;0.80;0.70;;;11.50;99.90;;;;;;5074418;28;20183;-50
2022/12/26 12:52:03;;;;;;;1.83;0.90;;;11.40;99.90;;;;;;5073001;28;20210;-50
2022/12/26 12:54:51;;;;;;;1.40;1.00;;;11.30;99.90;;;;;;5029258;28;20190;-49
2022/12/26 12:57:25;;;;;;;5.30;1.40;;;11.10;99.90;;;;;;5074200;28;20251;-50
2022/12/26 13:00:12;;;;;;;3.27;1.07;;;11.10;99.90;;;;;;5074236;28;20620;-49
2022/12/26 13:02:57;;;;;;;4.73;1.20;;;11.00;99.90;;;;;;5074233;28;20204;-50
2022/12/26 13:05:42;;;;;;;5.77;1.33;;;11.00;99.90;;;;;;5074807;28;20218;-50
2022/12/26 13:08:29;;;;;;;3.00;1.10;;;10.90;99.90;;;;;;5074962;28;20197;-49
2022/12/26 13:14:22;;;;;;;3.03;1.07;;;10.80;99.90;;;;;;5073805;28;20213;-51
2022/12/26 13:17:06;;;;;;;1.73;1.10;;;10.80;99.90;;;;;;5072198;28;20226;-46
2022/12/26 13:19:49;;;;;;;4.23;1.20;;;10.70;99.90;;;;;;5074292;28;20172;-47
2022/12/26 13:22:27;;;;;;;7.13;1.30;;;10.60;99.90;;;;;;5073790;28;20203;-47
2022/12/26 13:24:58;;;;;;;2.97;1.07;;;10.40;99.90;;;;;;5073902;28;20167;-48
2022/12/26 13:27:31;;;;;;;4.50;1.50;;;10.20;99.90;;;;;;5073660;28;20171;-47
2022/12/26 13:29:56;;;;;;;5.27;1.80;;;10.10;99.90;;;;;;5073431;28;20183;-48
2022/12/26 13:32:30;;;;;;;4.43;1.80;;;9.90;99.90;;;;;;5073827;28;20203;-47
2022/12/26 13:34:58;;;;;;;5.57;2.50;;;9.80;99.90;;;;;;5073743;28;20210;-49
2022/12/26 13:37:38;;;;;;;3.40;2.07;;;9.60;99.90;;;;;;5073402;28;20285;-48
2022/12/26 13:40:15;;;;;;;5.37;2.00;;;9.60;99.90;;;;;;5073567;28;20172;-48
2022/12/26 13:45:40;;;;;;;3.67;1.90;;;9.40;99.90;;;;;;5073341;28;20165;-50
2022/12/26 13:48:17;;;;;;;4.77;2.50;;;9.40;99.90;;;;;;5073123;28;20171;-49
2022/12/26 13:50:56;;;;;;;3.73;2.27;;;9.40;99.90;;;;;;5073329;28;20195;-48
2022/12/26 13:53:24;;;;;;;5.70;2.30;;;9.30;99.90;;;;;;5072177;28;20659;-48
2022/12/26 13:56:01;;;;;;;4.37;2.00;;;9.30;99.90;;;;;;5073217;28;20183;-49
2022/12/26 13:58:47;;;;;;;4.77;2.07;;;9.30;99.90;;;;;;5073460;28;20223;-48
2022/12/26 14:01:51;;;;;;;3.70;2.07;;;9.20;99.90;;;;;;5055552;28;20230;-50
2022/12/26 14:04:19;;;;;;;4.17;1.70;;;9.20;99.90;;;;;;5074932;28;20205;-48
2022/12/26 14:07:00;;;;;;;4.87;1.77;;;9.20;99.90;;;;;;5081952;28;20671;-48
2022/12/26 14:09:43;;;;;;;5.10;1.63;;;9.10;99.90;;;;;;5080049;28;20612;-50
2022/12/26 14:12:30;;;;;;;5.57;2.30;;;9.10;99.90;;;;;;5073214;28;20195;-48
2022/12/26 14:15:04;;;;;;;4.90;1.80;;;9.10;99.90;;;;;;5073455;28;20186;-49
2022/12/26 14:17:54;;;;;;;5.67;2.13;;;9.10;99.90;;;;;;5073064;28;20217;-49
2022/12/26 14:20:36;;;;;;;3.63;2.00;;;9.10;99.90;;;;;;5073255;28;20170;-50
2022/12/26 14:23:24;;;;;;;7.57;2.20;;;9.10;99.90;;;;;;5073240;28;20163;-51
2022/12/26 14:26:17;;;;;;;6.40;2.10;;;9.00;99.90;;;;;;5073358;28;20246;-49
2022/12/26 14:29:01;;;;;;;6.30;2.30;;;9.10;99.90;;;;;;5073128;28;20179;-49
2022/12/26 14:31:36;;;;;;;2.77;1.93;;;9.00;99.90;;;;;;5073263;28;20211;-48
2022/12/26 14:34:34;;;;;;;9.07;2.67;;;9.00;99.90;;;;;;5073378;28;20631;-50
2022/12/26 14:37:29;;;;;;;3.83;3.17;;;9.00;99.90;;;;;;5072996;28;20155;-49
2022/12/26 14:40:03;;;;;;;7.20;2.43;;;9.00;99.90;;;;;;5072969;28;20178;-50
2022/12/26 14:45:28;;;;;;;8.53;2.10;;;8.90;99.90;;;;;;5072839;28;20233;-45
2022/12/26 14:47:55;;;;;;;7.83;2.30;;;8.90;99.90;;;;;;5072189;28;20180;-45
2022/12/26 14:50:44;;;;;;;5.67;2.30;;;8.80;99.90;;;;;;5073104;28;20268;-45
2022/12/26 14:53:19;;;;;;;6.23;2.40;;;8.80;99.90;;;;;;5072374;28;20229;-45
2022/12/26 14:55:51;;;;;;;10.00;2.70;;;8.70;99.90;;;;;;5073480;28;20174;-45
2022/12/26 14:58:34;;;;;;;6.43;1.83;;;8.60;99.90;;;;;;5074848;28;20206;-44
2022/12/26 15:01:11;;;;;;;6.80;2.50;;;8.60;99.90;;;;;;5076460;28;20199;-46
2022/12/26 15:03:43;;;;;;;7.40;2.27;;;8.50;99.90;;;;;;5076279;28;20178;-45
2022/12/26 15:06:18;;;;;;;2.73;1.50;;;8.50;99.90;;;;;;5076306;28;20167;-45
2022/12/26 15:09:08;;;;;;;5.37;2.60;;;8.40;99.90;;;;;;5075061;28;20521;-45
2022/12/26 15:11:55;;;;;;;3.80;1.70;;;8.30;99.90;;;;;;5076455;28;20763;-45
2022/12/26 15:14:42;;;;;;;5.27;2.10;;;8.30;99.90;;;;;;5076094;28;20165;-45
2022/12/26 15:17:17;;;;;;;4.87;2.00;;;8.20;99.90;;;;;;5076083;28;20245;-44
2022/12/26 15:20:23;;;;;;;4.90;1.53;;;8.10;99.90;;;;;;5076398;28;20167;-45
2022/12/26 15:23:27;;;;;;;6.67;1.93;;;8.10;99.90;;;;;;5046018;28;20529;-44
2022/12/26 15:26:06;;;;;;;4.90;1.90;;;7.90;99.90;;;;;;5076140;28;20168;-45
2022/12/26 15:28:45;;;;;;;10.10;2.47;;;7.90;99.90;;;;;;5074734;28;20185;-45
2022/12/26 15:31:20;;;;;;;5.43;2.57;;;7.90;99.90;;;;;;5074656;28;20206;-47
2022/12/26 15:33:51;;;;;;;7.57;2.57;;;7.80;99.90;;;;;;5074952;28;20649;-45
2022/12/26 15:36:35;;;;;;;10.07;2.47;;;7.90;99.90;;;;;;5074693;28;20178;-45
2022/12/26 15:39:28;;;;;;;7.80;2.97;;;7.80;99.90;;;;;;5075213;28;20198;-43